createdAt,value
2024-03-02T00:01:48.861Z,2.98
2024-03-02T00:04:16.955Z,2.91
2024-03-02T00:06:47.155Z,2.87
2024-03-02T00:09:14.405Z,3.04
2024-03-02T00:11:41.550Z,2.96
2024-03-02T00:14:10.238Z,2.95
2024-03-02T00:16:37.572Z,3.06
2024-03-02T00:19:06.079Z,3.11
2024-03-02T00:21:34.213Z,3.03
2024-03-02T00:24:01.643Z,3.01
2024-03-02T00:26:28.427Z,2.90
2024-03-02T00:28:56.532Z,2.80
2024-03-02T00:31:23.590Z,2.73
2024-03-02T00:33:51.556Z,2.72
2024-03-02T00:36:23.927Z,2.73
2024-03-02T00:38:51.687Z,2.76
2024-03-02T00:41:35.637Z,2.72
2024-03-02T00:44:03.759Z,2.64
2024-03-02T00:46:37.161Z,2.67
2024-03-02T00:49:05.242Z,2.54
2024-03-02T00:51:34.083Z,2.65
2024-03-02T00:54:05.859Z,2.80
2024-03-02T00:56:33.225Z,2.83
2024-03-02T00:59:00.812Z,2.56
2024-03-02T01:04:59.689Z,2.30
2024-03-02T01:07:32.265Z,2.29
2024-03-02T01:10:02.100Z,2.24
2024-03-02T01:12:34.006Z,2.31
2024-03-02T01:15:01.319Z,2.57
2024-03-02T01:17:31.106Z,2.49
2024-03-02T01:19:58.912Z,2.40
2024-03-02T01:22:29.092Z,2.28
2024-03-02T01:24:56.641Z,2.24
2024-03-02T01:27:23.913Z,2.59
2024-03-02T01:29:53.502Z,2.55
2024-03-02T01:32:20.827Z,2.16
2024-03-02T01:34:48.782Z,2.30
2024-03-02T01:37:24.828Z,2.08
2024-03-02T01:39:53.100Z,2.28
2024-03-02T01:42:20.250Z,2.16
2024-03-02T01:44:47.466Z,2.13
2024-03-02T01:47:14.700Z,2.22
2024-03-02T01:49:44.481Z,2.26
2024-03-02T01:52:11.504Z,2.40
2024-03-02T01:54:44.430Z,2.56
2024-03-02T01:57:12.256Z,2.63
2024-03-02T01:59:39.507Z,2.70
2024-03-02T02:02:09.178Z,2.36
2024-03-02T02:04:38.698Z,2.19
2024-03-02T02:07:06.233Z,2.19
2024-03-02T02:09:33.552Z,2.24
2024-03-02T02:12:00.743Z,2.40
2024-03-02T02:14:27.616Z,2.24
2024-03-02T02:16:54.527Z,2.19
2024-03-02T02:19:24.339Z,2.25
2024-03-02T02:21:51.580Z,2.27
2024-03-02T02:24:23.592Z,2.45
2024-03-02T02:26:51.555Z,2.65
2024-03-02T02:29:20.242Z,2.55
2024-03-02T02:31:48.192Z,2.35
2024-03-02T02:34:15.929Z,2.52
2024-03-02T02:36:44.228Z,2.31
2024-03-02T02:39:16.540Z,2.37
2024-03-02T02:42:04.037Z,2.29
2024-03-02T02:44:31.356Z,2.32
2024-03-02T02:47:02.993Z,2.75
2024-03-02T02:49:30.160Z,2.61
2024-03-02T02:51:58.509Z,2.28
2024-03-02T02:54:25.703Z,2.18
2024-03-02T02:56:52.908Z,2.11
2024-03-02T02:59:24.846Z,2.11
2024-03-02T03:01:58.184Z,2.03
2024-03-02T03:04:27.846Z,2.06
2024-03-02T03:06:56.465Z,2.06
2024-03-02T03:09:26.213Z,2.18
2024-03-02T03:11:55.904Z,2.14
2024-03-02T03:14:27.385Z,2.14
2024-03-02T03:16:57.013Z,2.25
2024-03-02T03:19:23.821Z,2.19
2024-03-02T03:21:52.061Z,2.16
2024-03-02T03:24:24.215Z,2.23
2024-03-02T03:26:57.162Z,2.29
2024-03-02T03:29:29.798Z,2.32
2024-03-02T03:31:59.112Z,2.29
2024-03-02T03:34:26.848Z,2.32
2024-03-02T03:36:56.475Z,2.38
2024-03-02T03:39:23.711Z,2.55
2024-03-02T03:41:58.217Z,2.53
2024-03-02T03:44:26.096Z,2.55
2024-03-02T03:46:53.179Z,2.62
2024-03-02T03:49:22.035Z,2.62
2024-03-02T03:51:49.400Z,2.56
2024-03-02T03:54:19.074Z,2.55
2024-03-02T03:56:46.332Z,2.91
2024-03-02T03:59:15.924Z,2.94
2024-03-02T04:01:43.029Z,2.81
2024-03-02T04:04:16.002Z,3.08
2024-03-02T04:10:36.994Z,3.03
2024-03-02T04:13:13.857Z,2.99
2024-03-02T04:15:53.576Z,3.06
2024-03-02T04:18:21.857Z,2.94
2024-03-02T04:20:51.045Z,2.85
2024-03-02T04:23:19.858Z,2.70
2024-03-02T04:25:49.329Z,2.55
2024-03-02T04:28:17.908Z,2.94
2024-03-02T04:30:45.907Z,2.81
2024-03-02T04:33:13.317Z,2.78
2024-03-02T04:35:46.235Z,2.76
2024-03-02T04:38:15.803Z,2.60
2024-03-02T04:40:42.573Z,2.60
2024-03-02T04:43:09.804Z,2.60
2024-03-02T04:45:40.550Z,2.81
2024-03-02T04:48:08.655Z,2.79
2024-03-02T04:50:35.732Z,2.80
2024-03-02T04:53:05.362Z,2.64
2024-03-02T04:55:32.966Z,2.53
2024-03-02T04:58:00.438Z,2.40
2024-03-02T05:00:27.663Z,2.55
2024-03-02T05:02:55.278Z,2.48
2024-03-02T05:05:22.666Z,2.58
2024-03-02T05:07:50.867Z,2.55
2024-03-02T05:10:20.561Z,2.36
2024-03-02T05:12:47.779Z,2.38
2024-03-02T05:15:15.980Z,2.39
2024-03-02T05:17:45.181Z,2.62
2024-03-02T05:20:12.376Z,2.92
2024-03-02T05:22:39.223Z,2.33
2024-03-02T05:25:07.409Z,2.44
2024-03-02T05:27:36.418Z,2.39
2024-03-02T05:30:06.856Z,2.25
2024-03-02T05:32:34.503Z,2.43
2024-03-02T05:35:01.631Z,2.22
2024-03-02T05:37:28.809Z,2.23
2024-03-02T05:39:56.110Z,2.45
2024-03-02T05:42:23.972Z,2.17
2024-03-02T05:44:51.047Z,2.17
2024-03-02T05:47:19.174Z,2.28
2024-03-02T05:49:51.619Z,2.10
2024-03-02T05:52:18.758Z,2.07
2024-03-02T05:54:45.992Z,1.90
2024-03-02T05:57:18.958Z,2.02
2024-03-02T05:59:46.552Z,1.83
2024-03-02T06:02:16.939Z,2.01
2024-03-02T06:04:44.022Z,1.96
2024-03-02T06:07:11.085Z,1.92
2024-03-02T06:09:40.158Z,1.95
2024-03-02T06:12:07.790Z,1.86
2024-03-02T06:14:34.600Z,1.98
2024-03-02T06:17:02.435Z,2.04
2024-03-02T06:19:29.830Z,2.17
2024-03-02T06:21:57.367Z,2.06
2024-03-02T06:24:24.548Z,2.08
2024-03-02T06:27:17.273Z,2.14
2024-03-02T06:29:45.412Z,2.33
2024-03-02T06:32:13.520Z,2.15
2024-03-02T06:34:45.378Z,2.37
2024-03-02T06:37:12.419Z,2.26
2024-03-02T06:39:39.575Z,2.50
2024-03-02T06:42:07.372Z,2.34
2024-03-02T06:44:35.500Z,2.84
2024-03-02T06:47:02.732Z,2.74
2024-03-02T06:49:30.987Z,2.97
2024-03-02T06:51:58.893Z,2.95
2024-03-02T06:54:25.884Z,3.09
2024-03-02T06:56:52.760Z,3.57
2024-03-02T06:59:19.948Z,3.28
2024-03-02T07:01:47.245Z,3.16
2024-03-02T07:04:14.537Z,3.49
2024-03-02T07:06:46.885Z,4.17
2024-03-02T07:09:16.776Z,3.65
2024-03-02T07:11:44.946Z,3.66
2024-03-02T07:14:12.204Z,4.40
2024-03-02T07:16:39.364Z,5.08
2024-03-02T07:19:07.414Z,4.84
2024-03-02T07:21:35.635Z,4.40
2024-03-02T07:24:02.871Z,5.39
2024-03-02T07:29:02.599Z,5.02
2024-03-02T07:31:30.187Z,5.81
2024-03-02T07:33:59.000Z,6.60
2024-03-02T07:36:26.344Z,6.89
2024-03-02T07:38:56.108Z,5.81
2024-03-02T07:41:24.158Z,6.39
2024-03-02T07:43:52.082Z,6.55
2024-03-02T07:46:19.429Z,7.30
2024-03-02T07:48:49.794Z,7.57
2024-03-02T07:51:56.407Z,8.09
2024-03-02T07:54:26.063Z,8.12
2024-03-02T07:56:54.447Z,8.32
2024-03-02T07:59:22.335Z,8.26
2024-03-02T08:01:55.348Z,8.38
2024-03-02T08:04:23.342Z,9.12
2024-03-02T08:06:50.570Z,8.93
2024-03-02T08:09:18.397Z,8.57
2024-03-02T08:11:46.536Z,8.65
2024-03-02T08:14:13.578Z,8.13
2024-03-02T08:16:43.486Z,8.96
2024-03-02T08:19:10.882Z,9.05
2024-03-02T08:21:38.291Z,9.26
2024-03-02T08:24:06.548Z,8.97
2024-03-02T08:26:34.805Z,8.99
2024-03-02T08:29:01.982Z,9.12
2024-03-02T08:31:29.315Z,8.90
2024-03-02T08:33:56.430Z,9.15
2024-03-02T08:36:25.080Z,9.40
2024-03-02T08:38:54.863Z,9.46
2024-03-02T08:41:22.172Z,9.28
2024-03-02T08:43:49.241Z,9.78
2024-03-02T08:46:17.265Z,8.57
2024-03-02T08:48:45.300Z,9.18
2024-03-02T08:51:14.378Z,8.64
2024-03-02T08:53:41.251Z,8.75
2024-03-02T08:56:11.942Z,9.05
2024-03-02T08:58:39.464Z,8.77
2024-03-02T09:01:07.673Z,9.29
2024-03-02T09:03:36.505Z,8.52
2024-03-02T09:06:08.063Z,8.55
2024-03-02T09:08:35.117Z,8.50
2024-03-02T09:11:12.285Z,8.70
2024-03-02T09:13:39.966Z,8.45
2024-03-02T09:16:07.450Z,8.72
2024-03-02T09:18:34.719Z,8.61
2024-03-02T09:21:03.112Z,8.70
2024-03-02T09:23:30.399Z,8.88
2024-03-02T09:25:58.460Z,8.81
2024-03-02T09:28:28.116Z,9.10
2024-03-02T09:30:56.908Z,9.28
2024-03-02T09:33:25.991Z,9.21
2024-03-02T09:35:54.417Z,9.54
2024-03-02T09:38:25.970Z,9.20
2024-03-02T09:40:53.182Z,9.19
2024-03-02T09:43:21.524Z,9.10
2024-03-02T09:45:49.321Z,9.42
2024-03-02T09:48:17.465Z,9.90
2024-03-02T09:50:46.183Z,9.98
2024-03-02T09:53:15.787Z,10.38
2024-03-02T09:55:46.839Z,10.22
2024-03-02T09:58:14.638Z,10.08
2024-03-02T10:00:41.655Z,10.21
2024-03-02T10:03:14.337Z,9.90
2024-03-02T10:05:45.751Z,10.03
2024-03-02T10:08:13.084Z,10.62
2024-03-02T10:10:40.709Z,11.05
2024-03-02T10:13:09.999Z,11.07
2024-03-02T10:15:38.796Z,11.12
2024-03-02T10:18:06.459Z,10.72
2024-03-02T10:20:33.280Z,10.67
2024-03-02T10:23:19.219Z,10.29
2024-03-02T10:25:54.907Z,10.21
2024-03-02T10:28:26.588Z,11.29
2024-03-02T10:30:54.671Z,11.14
2024-03-02T10:33:30.708Z,11.45
2024-03-02T10:35:58.314Z,11.37
2024-03-02T10:38:25.472Z,10.93
2024-03-02T10:40:52.542Z,11.84
2024-03-02T10:43:19.324Z,11.26
2024-03-02T10:45:48.648Z,11.47
2024-03-02T10:48:23.660Z,12.21
2024-03-02T10:50:50.889Z,11.65
2024-03-02T10:53:18.293Z,11.84
2024-03-02T10:55:45.881Z,11.72
2024-03-02T10:58:13.320Z,12.07
2024-03-02T11:00:40.530Z,12.04
2024-03-02T11:03:08.664Z,12.51
2024-03-02T11:05:45.749Z,12.29
2024-03-02T11:08:20.349Z,12.18
2024-03-02T11:10:54.639Z,12.20
2024-03-02T11:13:34.229Z,12.83
2024-03-02T11:16:07.369Z,12.86
2024-03-02T11:18:39.384Z,13.40
2024-03-02T11:21:09.284Z,13.07
2024-03-02T11:23:36.165Z,13.13
2024-03-02T11:26:23.266Z,13.49
2024-03-02T11:28:50.096Z,14.17
2024-03-02T11:31:18.231Z,14.69
2024-03-02T11:33:47.978Z,15.00
2024-03-02T11:36:15.693Z,15.06
2024-03-02T11:38:45.568Z,14.05
2024-03-02T11:41:13.021Z,13.82
2024-03-02T11:43:42.056Z,12.81
2024-03-02T11:46:10.702Z,13.13
2024-03-02T11:48:39.540Z,13.11
2024-03-02T11:51:06.421Z,13.02
2024-03-02T11:53:35.806Z,13.04
2024-03-02T11:56:03.126Z,13.88
2024-03-02T11:58:30.004Z,13.83
2024-03-02T12:00:59.592Z,14.03
2024-03-02T12:03:29.920Z,14.08
2024-03-02T12:05:58.034Z,14.40
2024-03-02T12:08:26.253Z,14.33
2024-03-02T12:11:29.924Z,13.36
2024-03-02T12:13:56.868Z,13.62
2024-03-02T12:16:28.542Z,13.29
2024-03-02T12:18:55.883Z,13.27
2024-03-02T12:21:22.832Z,12.95
2024-03-02T12:23:51.274Z,12.87
2024-03-02T12:26:21.027Z,12.42
2024-03-02T12:28:47.884Z,12.38
2024-03-02T12:31:15.078Z,12.63
2024-03-02T12:33:43.079Z,13.35
2024-03-02T12:36:16.817Z,13.31
2024-03-02T12:42:09.767Z,14.10
2024-03-02T12:44:36.584Z,14.60
2024-03-02T12:47:38.260Z,14.97
2024-03-02T12:57:27.844Z,13.57
2024-03-02T12:59:59.310Z,12.06
2024-03-02T13:02:30.549Z,12.57
2024-03-02T13:04:57.492Z,12.10
2024-03-02T13:07:29.019Z,11.24
2024-03-02T13:09:56.645Z,11.12
2024-03-02T13:12:24.182Z,11.43
2024-03-02T13:14:55.059Z,11.35
2024-03-02T13:17:23.335Z,12.35
2024-03-02T13:19:55.003Z,13.75
2024-03-02T13:22:23.150Z,14.04
2024-03-02T13:24:51.933Z,13.23
2024-03-02T13:27:18.830Z,14.23
2024-03-02T13:29:45.629Z,13.94
2024-03-02T13:32:13.088Z,14.08
2024-03-02T13:34:40.067Z,13.74
2024-03-02T13:37:06.936Z,14.40
2024-03-02T13:39:43.973Z,14.69
2024-03-02T13:42:12.249Z,15.02
2024-03-02T13:44:44.200Z,14.04
2024-03-02T13:47:11.149Z,13.35
2024-03-02T13:49:43.415Z,14.15
2024-03-02T13:52:11.793Z,14.75
2024-03-02T13:54:42.267Z,14.77
2024-03-02T13:57:09.266Z,14.20
2024-03-02T13:59:36.777Z,14.41
2024-03-02T14:02:12.981Z,14.48
2024-03-02T14:04:40.339Z,14.80
2024-03-02T14:07:07.534Z,15.10
2024-03-02T14:09:34.424Z,15.01
2024-03-02T14:12:01.340Z,14.16
2024-03-02T14:14:28.341Z,14.91
2024-03-02T14:16:58.393Z,14.98
2024-03-02T14:19:25.225Z,15.05
2024-03-02T14:21:52.185Z,14.90
2024-03-02T14:24:23.036Z,14.93
2024-03-02T14:27:00.906Z,15.27
2024-03-02T14:29:32.518Z,15.10
2024-03-02T14:31:59.330Z,15.18
2024-03-02T14:34:26.343Z,14.05
2024-03-02T14:36:54.469Z,14.46
2024-03-02T14:39:23.056Z,15.22
2024-03-02T14:41:49.894Z,15.36
2024-03-02T14:44:16.708Z,15.08
2024-03-02T14:46:45.624Z,14.96
2024-03-02T14:49:12.924Z,14.89
2024-03-02T14:51:40.882Z,15.53
2024-03-02T14:54:08.158Z,12.62
2024-03-02T15:00:34.233Z,11.62
2024-03-02T15:03:01.535Z,12.02
2024-03-02T15:05:28.535Z,11.72
2024-03-02T15:07:55.635Z,11.35
2024-03-02T15:10:22.868Z,11.34
2024-03-02T15:12:51.080Z,10.85
2024-03-02T15:15:17.925Z,10.80
2024-03-02T15:17:45.674Z,11.04
2024-03-02T15:20:14.455Z,11.23
2024-03-02T15:23:09.674Z,11.32
2024-03-02T15:25:37.599Z,11.23
2024-03-02T15:28:05.232Z,10.78
2024-03-02T15:30:32.931Z,11.36
2024-03-02T15:33:01.555Z,11.26
2024-03-02T15:35:28.847Z,10.69
2024-03-02T15:37:56.098Z,10.72
2024-03-02T15:40:23.212Z,10.90
2024-03-02T15:42:50.512Z,11.03
2024-03-02T15:45:17.893Z,10.45
2024-03-02T15:47:46.211Z,10.69
2024-03-02T15:50:13.509Z,10.67
2024-03-02T15:52:43.869Z,10.58
2024-03-02T15:55:15.803Z,10.44
2024-03-02T15:57:44.493Z,10.52
2024-03-02T16:00:13.144Z,10.32
2024-03-02T16:02:40.340Z,10.42
2024-03-02T16:05:07.543Z,10.73
2024-03-02T16:07:34.449Z,10.42
2024-03-02T16:10:01.660Z,10.76
2024-03-02T16:12:30.734Z,10.25
2024-03-02T16:14:57.793Z,10.54
2024-03-02T16:17:25.854Z,10.33
2024-03-02T16:19:52.923Z,10.06
2024-03-02T16:22:21.697Z,10.09
2024-03-02T16:24:49.721Z,10.19
2024-03-02T16:27:16.888Z,9.93
2024-03-02T16:29:45.495Z,10.19
2024-03-02T16:32:15.898Z,9.96
2024-03-02T16:34:43.001Z,10.44
2024-03-02T16:37:14.543Z,10.42
2024-03-02T16:39:43.963Z,10.47
2024-03-02T16:42:12.383Z,10.91
2024-03-02T16:44:42.398Z,11.70
2024-03-02T16:47:10.731Z,12.18
2024-03-02T16:49:39.270Z,12.51
2024-03-02T16:52:07.710Z,12.15
2024-03-02T16:54:34.742Z,12.89
2024-03-02T16:57:02.219Z,12.72
2024-03-02T16:59:30.615Z,12.18
2024-03-02T17:01:58.913Z,12.96
2024-03-02T17:04:26.070Z,12.94
2024-03-02T17:06:53.693Z,13.07
2024-03-02T17:09:20.743Z,13.31
2024-03-02T17:11:47.780Z,13.29
2024-03-02T17:14:14.743Z,13.27
2024-03-02T17:16:42.795Z,13.20
2024-03-02T17:19:10.965Z,12.54
2024-03-02T17:21:38.016Z,12.74
2024-03-02T17:24:05.332Z,12.69
2024-03-02T17:26:33.060Z,12.72
2024-03-02T17:29:00.613Z,12.95
2024-03-02T17:31:27.584Z,13.12
2024-03-02T17:33:59.713Z,12.65
2024-03-02T17:36:26.921Z,10.38
2024-03-02T17:38:55.061Z,9.64
2024-03-02T17:41:22.032Z,9.57
2024-03-02T17:43:49.204Z,10.69
2024-03-02T17:46:17.883Z,11.19
2024-03-02T17:48:45.764Z,11.75
2024-03-02T17:55:02.949Z,12.30
2024-03-02T17:57:31.332Z,11.54
2024-03-02T17:59:58.774Z,10.30
2024-03-02T18:02:26.533Z,9.48
2024-03-02T18:04:54.166Z,8.81
2024-03-02T18:07:22.903Z,8.68
2024-03-02T18:09:50.015Z,8.97
2024-03-02T18:12:17.096Z,10.03
2024-03-02T18:14:45.919Z,10.67
2024-03-02T18:17:13.112Z,10.55
2024-03-02T18:19:40.192Z,9.26
2024-03-02T18:22:08.609Z,8.83
2024-03-02T18:24:38.039Z,9.58
2024-03-02T18:27:05.876Z,10.40
2024-03-02T18:29:35.539Z,9.07
2024-03-02T18:32:04.227Z,8.20
2024-03-02T18:34:31.365Z,8.09
2024-03-02T18:36:58.965Z,8.23
2024-03-02T18:39:26.761Z,7.94
2024-03-02T18:42:31.310Z,7.92
2024-03-02T18:45:07.029Z,7.82
2024-03-02T18:47:35.250Z,7.93
2024-03-02T18:50:02.337Z,7.96
2024-03-02T18:52:29.374Z,8.06
2024-03-02T18:54:57.674Z,8.26
2024-03-02T18:57:25.811Z,8.79
2024-03-02T18:59:52.794Z,8.66
2024-03-02T19:02:19.933Z,8.60
2024-03-02T19:04:47.426Z,8.14
2024-03-02T19:07:15.452Z,8.83
2024-03-02T19:09:42.986Z,8.84
2024-03-02T19:12:10.108Z,8.78
2024-03-02T19:14:38.618Z,9.55
2024-03-02T19:17:05.692Z,8.91
2024-03-02T19:19:37.331Z,9.09
2024-03-02T19:22:08.366Z,8.97
2024-03-02T19:24:38.825Z,7.95
2024-03-02T19:27:06.506Z,8.24
2024-03-02T19:29:33.832Z,8.32
2024-03-02T19:32:05.323Z,8.60
2024-03-02T19:34:41.613Z,9.16
2024-03-02T19:37:09.173Z,9.52
2024-03-02T19:39:36.533Z,9.52
2024-03-02T19:42:04.761Z,9.57
2024-03-02T19:44:31.999Z,9.67
2024-03-02T19:46:59.209Z,8.22
2024-03-02T19:49:26.562Z,8.69
2024-03-02T19:51:53.491Z,9.21
2024-03-02T19:54:20.464Z,8.84
2024-03-02T19:56:47.392Z,7.66
2024-03-02T19:59:14.334Z,7.69
2024-03-02T20:01:43.289Z,8.01
2024-03-02T20:04:11.627Z,7.70
2024-03-02T20:06:39.606Z,7.43
2024-03-02T20:09:12.199Z,7.70
2024-03-02T20:11:39.463Z,6.91
2024-03-02T20:14:06.784Z,6.97
2024-03-02T20:16:35.249Z,6.98
2024-03-02T20:19:04.036Z,7.39
2024-03-02T20:21:31.068Z,6.79
2024-03-02T20:23:58.033Z,6.61
2024-03-02T20:26:26.300Z,7.20
2024-03-02T20:28:56.181Z,7.75
2024-03-02T20:31:24.056Z,7.64
2024-03-02T20:33:51.011Z,7.00
2024-03-02T20:36:18.071Z,6.89
2024-03-02T20:38:49.528Z,6.83
2024-03-02T20:41:19.808Z,7.30
2024-03-02T20:43:50.080Z,7.16
2024-03-02T20:46:17.572Z,6.97
2024-03-02T20:48:45.522Z,7.19
2024-03-02T20:51:12.894Z,8.04
2024-03-02T20:53:40.347Z,7.48
2024-03-02T20:56:08.359Z,7.28
2024-03-02T20:58:43.120Z,7.73
2024-03-02T21:01:11.755Z,7.41
2024-03-02T21:03:39.806Z,7.21
2024-03-02T21:06:07.935Z,7.77
2024-03-02T21:08:36.689Z,7.98
2024-03-02T21:11:08.565Z,8.32
2024-03-02T21:13:40.036Z,7.55
2024-03-02T21:16:09.566Z,7.27
2024-03-02T21:18:38.185Z,6.92
2024-03-02T21:21:07.104Z,7.08
2024-03-02T21:23:36.340Z,7.07
2024-03-02T21:26:05.012Z,7.15
2024-03-02T21:28:32.703Z,7.54
2024-03-02T21:31:01.066Z,7.81
2024-03-02T21:33:28.792Z,7.68
2024-03-02T21:35:59.082Z,8.17
2024-03-02T21:38:30.948Z,8.43
2024-03-02T21:41:01.948Z,8.57
2024-03-02T21:43:29.697Z,8.89
2024-03-02T21:45:58.234Z,7.85
2024-03-02T21:48:25.895Z,7.82
2024-03-02T21:51:22.125Z,8.55
2024-03-02T21:53:50.445Z,7.84
2024-03-02T21:56:18.526Z,8.09
2024-03-02T21:58:45.733Z,7.66
2024-03-02T22:01:12.833Z,7.34
2024-03-02T22:03:42.781Z,7.94
2024-03-02T22:06:09.632Z,7.84
2024-03-02T22:08:38.549Z,7.58
2024-03-02T22:11:06.593Z,7.56
2024-03-02T22:13:33.427Z,7.52
2024-03-02T22:16:01.403Z,8.38
2024-03-02T22:18:28.272Z,8.81
2024-03-02T22:20:56.420Z,9.04
2024-03-02T22:27:16.374Z,9.18
2024-03-02T22:29:44.806Z,7.98
2024-03-02T22:32:11.997Z,7.49
2024-03-02T22:34:39.995Z,7.21
2024-03-02T22:37:10.331Z,7.44
2024-03-02T22:39:37.226Z,8.07
2024-03-02T22:42:04.438Z,8.61
2024-03-02T22:44:32.360Z,7.49
2024-03-02T22:46:59.334Z,7.59
2024-03-02T22:49:26.624Z,7.20
2024-03-02T22:51:53.530Z,6.99
2024-03-02T22:54:23.693Z,6.97
2024-03-02T22:56:50.952Z,7.16
2024-03-02T22:59:17.869Z,7.49
2024-03-02T23:04:25.606Z,8.63
2024-03-02T23:06:53.015Z,8.59
2024-03-02T23:09:21.295Z,9.03
2024-03-02T23:11:48.567Z,7.47
2024-03-02T23:14:18.438Z,7.06
2024-03-02T23:16:46.347Z,7.29
2024-03-02T23:19:13.567Z,7.23
2024-03-02T23:21:41.007Z,6.92
2024-03-02T23:24:08.166Z,6.95
2024-03-02T23:26:38.014Z,7.74
2024-03-02T23:29:10.304Z,7.73
2024-03-02T23:31:38.648Z,7.01
2024-03-02T23:34:09.188Z,6.97
2024-03-02T23:40:31.535Z,6.65
2024-03-02T23:42:58.855Z,6.67
2024-03-02T23:45:26.775Z,6.75
2024-03-02T23:47:53.853Z,6.68
2024-03-02T23:50:22.016Z,6.44
2024-03-02T23:52:49.138Z,6.56
2024-03-02T23:55:17.481Z,6.61
2024-03-02T23:57:45.194Z,6.75
